sensor_id;sensor_type;location;lat;lon;timestamp;P1;durP1;ratioP1;P2;durP2;ratioP2
39242;SDS011;29823;47.404;8.566;2024-03-22T00:00:59;7.50;;;2.60;;
39242;SDS011;29823;47.404;8.566;2024-03-22T00:03:26;10.77;;;2.75;;
39242;SDS011;29823;47.404;8.566;2024-03-22T00:05:52;6.63;;;2.80;;
39242;SDS011;29823;47.404;8.566;2024-03-22T00:08:18;6.80;;;3.88;;
39242;SDS011;29823;47.404;8.566;2024-03-22T00:10:44;6.88;;;2.53;;
39242;SDS011;29823;47.404;8.566;2024-03-22T00:13:10;4.40;;;2.70;;
39242;SDS011;29823;47.404;8.566;2024-03-22T00:15:36;5.47;;;2.60;;
39242;SDS011;29823;47.404;8.566;2024-03-22T00:18:04;9.00;;;2.58;;
39242;SDS011;29823;47.404;8.566;2024-03-22T00:20:30;7.38;;;3.00;;
39242;SDS011;29823;47.404;8.566;2024-03-22T00:22:56;5.68;;;2.90;;
39242;SDS011;29823;47.404;8.566;2024-03-22T00:25:22;9.88;;;3.00;;
39242;SDS011;29823;47.404;8.566;2024-03-22T00:27:48;7.15;;;2.58;;
39242;SDS011;29823;47.404;8.566;2024-03-22T00:30:14;8.38;;;3.00;;
39242;SDS011;29823;47.404;8.566;2024-03-22T00:32:41;8.07;;;3.25;;
39242;SDS011;29823;47.404;8.566;2024-03-22T00:35:10;9.60;;;2.83;;
39242;SDS011;29823;47.404;8.566;2024-03-22T00:37:37;7.72;;;2.90;;
39242;SDS011;29823;47.404;8.566;2024-03-22T00:40:03;6.80;;;3.33;;
39242;SDS011;29823;47.404;8.566;2024-03-22T00:42:29;7.80;;;2.97;;
39242;SDS011;29823;47.404;8.566;2024-03-22T00:44:55;10.35;;;3.28;;
39242;SDS011;29823;47.404;8.566;2024-03-22T00:47:23;10.55;;;3.63;;
39242;SDS011;29823;47.404;8.566;2024-03-22T00:49:48;7.32;;;3.33;;
39242;SDS011;29823;47.404;8.566;2024-03-22T00:52:17;6.10;;;3.05;;
39242;SDS011;29823;47.404;8.566;2024-03-22T00:54:42;9.18;;;3.65;;
39242;SDS011;29823;47.404;8.566;2024-03-22T00:57:09;9.27;;;3.80;;
39242;SDS011;29823;47.404;8.566;2024-03-22T00:59:34;8.00;;;3.33;;
39242;SDS011;29823;47.404;8.566;2024-03-22T01:02:01;6.82;;;3.53;;
39242;SDS011;29823;47.404;8.566;2024-03-22T01:04:27;12.07;;;3.55;;
39242;SDS011;29823;47.404;8.566;2024-03-22T01:06:54;8.00;;;3.08;;
39242;SDS011;29823;47.404;8.566;2024-03-22T01:09:21;9.48;;;3.38;;
39242;SDS011;29823;47.404;8.566;2024-03-22T01:11:48;7.00;;;3.50;;
39242;SDS011;29823;47.404;8.566;2024-03-22T01:14:14;7.53;;;3.25;;
39242;SDS011;29823;47.404;8.566;2024-03-22T01:16:41;7.30;;;3.00;;
39242;SDS011;29823;47.404;8.566;2024-03-22T01:19:08;9.80;;;3.58;;
39242;SDS011;29823;47.404;8.566;2024-03-22T01:21:34;5.63;;;2.95;;
39242;SDS011;29823;47.404;8.566;2024-03-22T01:24:01;7.00;;;3.33;;
39242;SDS011;29823;47.404;8.566;2024-03-22T01:26:29;7.10;;;3.03;;
39242;SDS011;29823;47.404;8.566;2024-03-22T01:28:54;7.90;;;3.03;;
39242;SDS011;29823;47.404;8.566;2024-03-22T01:31:21;9.10;;;3.28;;
39242;SDS011;29823;47.404;8.566;2024-03-22T01:33:47;9.38;;;3.63;;
39242;SDS011;29823;47.404;8.566;2024-03-22T01:36:14;5.28;;;2.97;;
39242;SDS011;29823;47.404;8.566;2024-03-22T01:38:39;9.02;;;3.70;;
39242;SDS011;29823;47.404;8.566;2024-03-22T01:41:06;8.15;;;3.05;;
39242;SDS011;29823;47.404;8.566;2024-03-22T01:43:33;6.78;;;2.88;;
39242;SDS011;29823;47.404;8.566;2024-03-22T01:46:00;7.63;;;3.03;;
39242;SDS011;29823;47.404;8.566;2024-03-22T01:48:25;9.65;;;3.40;;
39242;SDS011;29823;47.404;8.566;2024-03-22T01:50:52;4.60;;;2.78;;
39242;SDS011;29823;47.404;8.566;2024-03-22T01:53:18;6.40;;;2.58;;
39242;SDS011;29823;47.404;8.566;2024-03-22T01:55:44;7.88;;;2.60;;
39242;SDS011;29823;47.404;8.566;2024-03-22T01:58:10;4.38;;;2.42;;
39242;SDS011;29823;47.404;8.566;2024-03-22T02:00:39;9.40;;;3.17;;
39242;SDS011;29823;47.404;8.566;2024-03-22T02:03:05;8.38;;;2.72;;
39242;SDS011;29823;47.404;8.566;2024-03-22T02:05:31;10.18;;;3.38;;
39242;SDS011;29823;47.404;8.566;2024-03-22T02:07:57;6.63;;;3.25;;
39242;SDS011;29823;47.404;8.566;2024-03-22T02:10:24;9.50;;;3.85;;
39242;SDS011;29823;47.404;8.566;2024-03-22T02:12:49;8.65;;;3.38;;
39242;SDS011;29823;47.404;8.566;2024-03-22T02:15:16;7.22;;;3.05;;
39242;SDS011;29823;47.404;8.566;2024-03-22T02:17:43;8.07;;;3.15;;
39242;SDS011;29823;47.404;8.566;2024-03-22T02:20:10;9.43;;;3.90;;
39242;SDS011;29823;47.404;8.566;2024-03-22T02:22:37;7.57;;;3.40;;
39242;SDS011;29823;47.404;8.566;2024-03-22T02:25:05;7.78;;;3.33;;
39242;SDS011;29823;47.404;8.566;2024-03-22T02:27:33;5.15;;;3.58;;
39242;SDS011;29823;47.404;8.566;2024-03-22T02:29:59;9.77;;;3.70;;
39242;SDS011;29823;47.404;8.566;2024-03-22T02:32:25;5.60;;;3.28;;
39242;SDS011;29823;47.404;8.566;2024-03-22T02:34:51;7.18;;;3.28;;
39242;SDS011;29823;47.404;8.566;2024-03-22T02:37:17;8.15;;;3.30;;
39242;SDS011;29823;47.404;8.566;2024-03-22T02:39:44;6.15;;;3.13;;
39242;SDS011;29823;47.404;8.566;2024-03-22T02:42:11;4.00;;;2.75;;
39242;SDS011;29823;47.404;8.566;2024-03-22T02:44:37;11.25;;;3.22;;
39242;SDS011;29823;47.404;8.566;2024-03-22T02:47:07;5.68;;;3.65;;
39242;SDS011;29823;47.404;8.566;2024-03-22T02:49:34;6.03;;;3.13;;
39242;SDS011;29823;47.404;8.566;2024-03-22T02:52:00;7.32;;;2.67;;
39242;SDS011;29823;47.404;8.566;2024-03-22T02:54:26;9.63;;;3.03;;
39242;SDS011;29823;47.404;8.566;2024-03-22T02:56:52;7.90;;;3.70;;
39242;SDS011;29823;47.404;8.566;2024-03-22T02:59:20;10.02;;;4.03;;
39242;SDS011;29823;47.404;8.566;2024-03-22T03:01:45;11.90;;;5.30;;
39242;SDS011;29823;47.404;8.566;2024-03-22T03:04:12;10.70;;;4.18;;
39242;SDS011;29823;47.404;8.566;2024-03-22T03:06:38;6.53;;;4.10;;
39242;SDS011;29823;47.404;8.566;2024-03-22T03:09:04;10.60;;;4.00;;
39242;SDS011;29823;47.404;8.566;2024-03-22T03:11:30;7.97;;;3.88;;
39242;SDS011;29823;47.404;8.566;2024-03-22T03:13:57;5.97;;;3.30;;
39242;SDS011;29823;47.404;8.566;2024-03-22T03:16:24;9.15;;;3.45;;
39242;SDS011;29823;47.404;8.566;2024-03-22T03:18:50;6.63;;;4.60;;
39242;SDS011;29823;47.404;8.566;2024-03-22T03:21:16;9.10;;;4.45;;
39242;SDS011;29823;47.404;8.566;2024-03-22T03:23:43;7.15;;;3.97;;
39242;SDS011;29823;47.404;8.566;2024-03-22T03:26:08;5.25;;;3.40;;
39242;SDS011;29823;47.404;8.566;2024-03-22T03:28:35;7.53;;;3.60;;
39242;SDS011;29823;47.404;8.566;2024-03-22T03:31:00;10.60;;;3.78;;
39242;SDS011;29823;47.404;8.566;2024-03-22T03:33:29;6.50;;;3.45;;
39242;SDS011;29823;47.404;8.566;2024-03-22T03:35:55;8.48;;;3.45;;
39242;SDS011;29823;47.404;8.566;2024-03-22T03:38:21;11.35;;;3.58;;
39242;SDS011;29823;47.404;8.566;2024-03-22T03:40:47;5.18;;;2.92;;
39242;SDS011;29823;47.404;8.566;2024-03-22T03:43:14;14.25;;;3.55;;
39242;SDS011;29823;47.404;8.566;2024-03-22T03:45:40;5.95;;;3.45;;
39242;SDS011;29823;47.404;8.566;2024-03-22T03:48:06;5.22;;;3.15;;
39242;SDS011;29823;47.404;8.566;2024-03-22T03:50:33;8.20;;;4.10;;
39242;SDS011;29823;47.404;8.566;2024-03-22T03:53:00;7.80;;;3.67;;
39242;SDS011;29823;47.404;8.566;2024-03-22T03:55:26;6.72;;;3.53;;
39242;SDS011;29823;47.404;8.566;2024-03-22T03:57:52;12.50;;;4.88;;
39242;SDS011;29823;47.404;8.566;2024-03-22T04:00:19;7.25;;;3.92;;
39242;SDS011;29823;47.404;8.566;2024-03-22T04:02:45;7.20;;;4.15;;
39242;SDS011;29823;47.404;8.566;2024-03-22T04:05:11;14.52;;;4.70;;
39242;SDS011;29823;47.404;8.566;2024-03-22T04:07:39;6.40;;;3.65;;
39242;SDS011;29823;47.404;8.566;2024-03-22T04:10:08;4.50;;;3.17;;
39242;SDS011;29823;47.404;8.566;2024-03-22T04:12:35;9.68;;;3.55;;
39242;SDS011;29823;47.404;8.566;2024-03-22T04:15:00;10.15;;;3.97;;
39242;SDS011;29823;47.404;8.566;2024-03-22T04:17:27;8.15;;;3.65;;
39242;SDS011;29823;47.404;8.566;2024-03-22T04:19:53;4.40;;;3.42;;
39242;SDS011;29823;47.404;8.566;2024-03-22T04:22:19;14.27;;;3.22;;
39242;SDS011;29823;47.404;8.566;2024-03-22T04:24:46;7.18;;;3.42;;
39242;SDS011;29823;47.404;8.566;2024-03-22T04:27:13;13.25;;;3.50;;
39242;SDS011;29823;47.404;8.566;2024-03-22T04:29:38;10.27;;;3.47;;
39242;SDS011;29823;47.404;8.566;2024-03-22T04:32:05;7.07;;;3.42;;
39242;SDS011;29823;47.404;8.566;2024-03-22T04:34:31;5.03;;;2.90;;
39242;SDS011;29823;47.404;8.566;2024-03-22T04:36:57;11.57;;;3.75;;
39242;SDS011;29823;47.404;8.566;2024-03-22T04:39:24;7.18;;;3.10;;
39242;SDS011;29823;47.404;8.566;2024-03-22T04:41:52;17.17;;;3.67;;
39242;SDS011;29823;47.404;8.566;2024-03-22T04:44:19;6.85;;;4.00;;
39242;SDS011;29823;47.404;8.566;2024-03-22T04:46:46;12.45;;;4.43;;
39242;SDS011;29823;47.404;8.566;2024-03-22T04:49:11;10.63;;;3.95;;
39242;SDS011;29823;47.404;8.566;2024-03-22T04:51:38;7.18;;;4.07;;
39242;SDS011;29823;47.404;8.566;2024-03-22T04:54:04;5.82;;;4.03;;
39242;SDS011;29823;47.404;8.566;2024-03-22T04:56:30;6.78;;;4.30;;
39242;SDS011;29823;47.404;8.566;2024-03-22T04:58:57;8.70;;;3.60;;
39242;SDS011;29823;47.404;8.566;2024-03-22T05:01:24;8.05;;;4.20;;
39242;SDS011;29823;47.404;8.566;2024-03-22T05:03:50;6.05;;;3.60;;
39242;SDS011;29823;47.404;8.566;2024-03-22T05:06:17;11.38;;;4.03;;
39242;SDS011;29823;47.404;8.566;2024-03-22T05:08:43;4.75;;;3.78;;
39242;SDS011;29823;47.404;8.566;2024-03-22T05:11:09;7.95;;;4.90;;
39242;SDS011;29823;47.404;8.566;2024-03-22T05:13:35;12.45;;;3.80;;
39242;SDS011;29823;47.404;8.566;2024-03-22T05:16:03;6.15;;;3.42;;
39242;SDS011;29823;47.404;8.566;2024-03-22T05:18:29;6.30;;;3.50;;
39242;SDS011;29823;47.404;8.566;2024-03-22T05:20:56;6.78;;;3.67;;
39242;SDS011;29823;47.404;8.566;2024-03-22T05:23:22;6.22;;;3.55;;
39242;SDS011;29823;47.404;8.566;2024-03-22T05:25:48;12.30;;;3.58;;
39242;SDS011;29823;47.404;8.566;2024-03-22T05:28:14;6.70;;;3.35;;
39242;SDS011;29823;47.404;8.566;2024-03-22T05:30:41;8.70;;;3.10;;
39242;SDS011;29823;47.404;8.566;2024-03-22T05:33:08;11.23;;;3.75;;
39242;SDS011;29823;47.404;8.566;2024-03-22T05:35:35;6.78;;;3.40;;
39242;SDS011;29823;47.404;8.566;2024-03-22T05:38:00;8.18;;;3.88;;
39242;SDS011;29823;47.404;8.566;2024-03-22T05:40:27;5.60;;;3.35;;
39242;SDS011;29823;47.404;8.566;2024-03-22T05:42:53;9.30;;;3.97;;
39242;SDS011;29823;47.404;8.566;2024-03-22T05:45:19;6.60;;;3.85;;
39242;SDS011;29823;47.404;8.566;2024-03-22T05:47:45;12.07;;;3.88;;
39242;SDS011;29823;47.404;8.566;2024-03-22T05:50:13;12.88;;;3.70;;
39242;SDS011;29823;47.404;8.566;2024-03-22T05:52:40;8.05;;;3.85;;
39242;SDS011;29823;47.404;8.566;2024-03-22T05:55:06;7.93;;;3.28;;
39242;SDS011;29823;47.404;8.566;2024-03-22T05:57:32;3.97;;;2.80;;
39242;SDS011;29823;47.404;8.566;2024-03-22T05:59:58;8.02;;;2.92;;
39242;SDS011;29823;47.404;8.566;2024-03-22T06:02:25;3.97;;;2.70;;
39242;SDS011;29823;47.404;8.566;2024-03-22T06:04:50;12.95;;;3.08;;
39242;SDS011;29823;47.404;8.566;2024-03-22T06:07:18;6.90;;;2.70;;
39242;SDS011;29823;47.404;8.566;2024-03-22T06:09:44;5.55;;;3.40;;
39242;SDS011;29823;47.404;8.566;2024-03-22T06:12:14;8.75;;;3.85;;
39242;SDS011;29823;47.404;8.566;2024-03-22T06:14:40;6.63;;;3.20;;
39242;SDS011;29823;47.404;8.566;2024-03-22T06:17:07;9.35;;;2.97;;
39242;SDS011;29823;47.404;8.566;2024-03-22T06:19:32;6.78;;;3.22;;
39242;SDS011;29823;47.404;8.566;2024-03-22T06:21:59;6.35;;;3.25;;
39242;SDS011;29823;47.404;8.566;2024-03-22T06:24:26;5.40;;;3.30;;
39242;SDS011;29823;47.404;8.566;2024-03-22T06:26:53;4.97;;;3.10;;
39242;SDS011;29823;47.404;8.566;2024-03-22T06:29:19;6.35;;;3.30;;
39242;SDS011;29823;47.404;8.566;2024-03-22T06:31:46;8.95;;;3.97;;
39242;SDS011;29823;47.404;8.566;2024-03-22T06:34:11;9.20;;;5.00;;
39242;SDS011;29823;47.404;8.566;2024-03-22T06:36:38;9.93;;;4.70;;
39242;SDS011;29823;47.404;8.566;2024-03-22T06:39:04;6.05;;;4.15;;
39242;SDS011;29823;47.404;8.566;2024-03-22T06:41:34;7.90;;;4.75;;
39242;SDS011;29823;47.404;8.566;2024-03-22T06:43:59;8.15;;;4.85;;
39242;SDS011;29823;47.404;8.566;2024-03-22T06:46:28;10.32;;;4.32;;
39242;SDS011;29823;47.404;8.566;2024-03-22T06:48:54;6.53;;;4.65;;
39242;SDS011;29823;47.404;8.566;2024-03-22T06:51:21;6.05;;;3.70;;
39242;SDS011;29823;47.404;8.566;2024-03-22T06:53:47;6.97;;;3.47;;
39242;SDS011;29823;47.404;8.566;2024-03-22T06:56:13;8.93;;;4.20;;
39242;SDS011;29823;47.404;8.566;2024-03-22T06:58:41;7.63;;;3.83;;
39242;SDS011;29823;47.404;8.566;2024-03-22T07:01:07;8.80;;;4.22;;
39242;SDS011;29823;47.404;8.566;2024-03-22T07:03:33;7.03;;;4.30;;
39242;SDS011;29823;47.404;8.566;2024-03-22T07:05:59;7.25;;;4.60;;
39242;SDS011;29823;47.404;8.566;2024-03-22T07:08:26;7.20;;;4.13;;
39242;SDS011;29823;47.404;8.566;2024-03-22T07:10:53;9.65;;;4.35;;
39242;SDS011;29823;47.404;8.566;2024-03-22T07:13:19;8.57;;;4.13;;
39242;SDS011;29823;47.404;8.566;2024-03-22T07:15:48;7.22;;;4.32;;
39242;SDS011;29823;47.404;8.566;2024-03-22T07:18:14;7.55;;;4.78;;
39242;SDS011;29823;47.404;8.566;2024-03-22T07:20:41;8.57;;;4.22;;
39242;SDS011;29823;47.404;8.566;2024-03-22T07:23:07;12.57;;;4.88;;
39242;SDS011;29823;47.404;8.566;2024-03-22T07:25:34;10.48;;;4.63;;
39242;SDS011;29823;47.404;8.566;2024-03-22T07:27:59;9.13;;;4.53;;
39242;SDS011;29823;47.404;8.566;2024-03-22T07:30:26;9.05;;;4.07;;
39242;SDS011;29823;47.404;8.566;2024-03-22T07:32:53;13.63;;;5.22;;
39242;SDS011;29823;47.404;8.566;2024-03-22T07:35:20;6.55;;;4.28;;
39242;SDS011;29823;47.404;8.566;2024-03-22T07:37:46;20.00;;;4.40;;
39242;SDS011;29823;47.404;8.566;2024-03-22T07:40:12;6.78;;;4.00;;
39242;SDS011;29823;47.404;8.566;2024-03-22T07:42:38;13.77;;;4.60;;
39242;SDS011;29823;47.404;8.566;2024-03-22T07:45:05;5.78;;;3.83;;
39242;SDS011;29823;47.404;8.566;2024-03-22T07:47:31;10.45;;;3.50;;
39242;SDS011;29823;47.404;8.566;2024-03-22T07:50:00;6.10;;;3.45;;
39242;SDS011;29823;47.404;8.566;2024-03-22T07:52:26;6.45;;;3.53;;
39242;SDS011;29823;47.404;8.566;2024-03-22T07:54:53;10.15;;;4.20;;
39242;SDS011;29823;47.404;8.566;2024-03-22T07:57:19;9.48;;;3.50;;
39242;SDS011;29823;47.404;8.566;2024-03-22T07:59:46;6.07;;;3.53;;
39242;SDS011;29823;47.404;8.566;2024-03-22T08:02:12;7.13;;;3.15;;
39242;SDS011;29823;47.404;8.566;2024-03-22T08:04:39;7.20;;;3.50;;
39242;SDS011;29823;47.404;8.566;2024-03-22T08:07:06;9.13;;;3.35;;
39242;SDS011;29823;47.404;8.566;2024-03-22T08:09:33;5.35;;;3.13;;
39242;SDS011;29823;47.404;8.566;2024-03-22T08:11:59;8.82;;;2.95;;
39242;SDS011;29823;47.404;8.566;2024-03-22T08:14:26;4.88;;;3.20;;
39242;SDS011;29823;47.404;8.566;2024-03-22T08:16:51;11.65;;;3.28;;
39242;SDS011;29823;47.404;8.566;2024-03-22T08:19:18;8.40;;;3.28;;
39242;SDS011;29823;47.404;8.566;2024-03-22T08:21:44;9.57;;;2.58;;
39242;SDS011;29823;47.404;8.566;2024-03-22T08:24:12;5.63;;;2.75;;
39242;SDS011;29823;47.404;8.566;2024-03-22T08:26:38;5.75;;;3.05;;
39242;SDS011;29823;47.404;8.566;2024-03-22T08:29:04;11.10;;;3.28;;
39242;SDS011;29823;47.404;8.566;2024-03-22T08:31:30;8.68;;;3.85;;
39242;SDS011;29823;47.404;8.566;2024-03-22T08:33:57;14.38;;;3.47;;
39242;SDS011;29823;47.404;8.566;2024-03-22T08:36:23;5.35;;;3.15;;
39242;SDS011;29823;47.404;8.566;2024-03-22T08:38:50;11.73;;;3.95;;
39242;SDS011;29823;47.404;8.566;2024-03-22T08:41:17;8.35;;;3.33;;
39242;SDS011;29823;47.404;8.566;2024-03-22T08:43:44;7.05;;;2.95;;
39242;SDS011;29823;47.404;8.566;2024-03-22T08:46:10;9.70;;;3.00;;
39242;SDS011;29823;47.404;8.566;2024-03-22T08:48:37;10.63;;;3.55;;
39242;SDS011;29823;47.404;8.566;2024-03-22T08:51:03;8.80;;;3.25;;
39242;SDS011;29823;47.404;8.566;2024-03-22T08:53:30;11.98;;;3.15;;
39242;SDS011;29823;47.404;8.566;2024-03-22T08:55:56;7.80;;;2.20;;
39242;SDS011;29823;47.404;8.566;2024-03-22T08:58:25;7.28;;;2.83;;
39242;SDS011;29823;47.404;8.566;2024-03-22T09:00:51;9.57;;;2.53;;
39242;SDS011;29823;47.404;8.566;2024-03-22T09:03:19;3.75;;;2.47;;
39242;SDS011;29823;47.404;8.566;2024-03-22T09:05:46;4.28;;;2.42;;
39242;SDS011;29823;47.404;8.566;2024-03-22T09:08:13;6.82;;;2.42;;
39242;SDS011;29823;47.404;8.566;2024-03-22T09:10:39;3.97;;;2.08;;
39242;SDS011;29823;47.404;8.566;2024-03-22T09:13:06;2.97;;;2.08;;
39242;SDS011;29823;47.404;8.566;2024-03-22T09:15:33;5.47;;;1.60;;
39242;SDS011;29823;47.404;8.566;2024-03-22T09:17:59;5.78;;;1.90;;
39242;SDS011;29823;47.404;8.566;2024-03-22T09:20:25;2.90;;;1.98;;
39242;SDS011;29823;47.404;8.566;2024-03-22T09:22:52;11.50;;;5.05;;
39242;SDS011;29823;47.404;8.566;2024-03-22T09:25:18;6.18;;;2.25;;
39242;SDS011;29823;47.404;8.566;2024-03-22T09:27:44;5.57;;;1.83;;
39242;SDS011;29823;47.404;8.566;2024-03-22T09:30:11;6.38;;;2.30;;
39242;SDS011;29823;47.404;8.566;2024-03-22T09:32:40;4.47;;;1.63;;
39242;SDS011;29823;47.404;8.566;2024-03-22T09:35:06;9.35;;;1.98;;
39242;SDS011;29823;47.404;8.566;2024-03-22T09:37:34;5.18;;;1.90;;
39242;SDS011;29823;47.404;8.566;2024-03-22T09:39:59;8.65;;;1.90;;
39242;SDS011;29823;47.404;8.566;2024-03-22T09:42:26;6.05;;;2.05;;
39242;SDS011;29823;47.404;8.566;2024-03-22T09:44:53;10.23;;;2.45;;
39242;SDS011;29823;47.404;8.566;2024-03-22T09:47:20;6.15;;;2.10;;
39242;SDS011;29823;47.404;8.566;2024-03-22T09:49:47;5.38;;;2.60;;
39242;SDS011;29823;47.404;8.566;2024-03-22T09:52:15;6.28;;;2.33;;
39242;SDS011;29823;47.404;8.566;2024-03-22T09:54:43;9.38;;;1.98;;
39242;SDS011;29823;47.404;8.566;2024-03-22T09:57:12;3.63;;;1.90;;
39242;SDS011;29823;47.404;8.566;2024-03-22T09:59:38;3.40;;;2.00;;
39242;SDS011;29823;47.404;8.566;2024-03-22T10:02:05;3.08;;;1.73;;
39242;SDS011;29823;47.404;8.566;2024-03-22T10:04:32;4.97;;;2.30;;
39242;SDS011;29823;47.404;8.566;2024-03-22T10:07:02;4.13;;;1.90;;
39242;SDS011;29823;47.404;8.566;2024-03-22T10:09:28;6.70;;;2.00;;
39242;SDS011;29823;47.404;8.566;2024-03-22T10:11:55;3.30;;;2.00;;
39242;SDS011;29823;47.404;8.566;2024-03-22T10:14:21;3.22;;;2.20;;
39242;SDS011;29823;47.404;8.566;2024-03-22T10:16:50;7.43;;;1.83;;
39242;SDS011;29823;47.404;8.566;2024-03-22T10:19:16;7.90;;;2.15;;
39242;SDS011;29823;47.404;8.566;2024-03-22T10:21:42;3.10;;;2.00;;
39242;SDS011;29823;47.404;8.566;2024-03-22T10:24:10;5.97;;;2.33;;
39242;SDS011;29823;47.404;8.566;2024-03-22T10:26:37;5.22;;;2.00;;
39242;SDS011;29823;47.404;8.566;2024-03-22T10:29:05;3.75;;;2.40;;
39242;SDS011;29823;47.404;8.566;2024-03-22T10:31:31;3.45;;;1.85;;
39242;SDS011;29823;47.404;8.566;2024-03-22T10:33:59;3.75;;;2.10;;
39242;SDS011;29823;47.404;8.566;2024-03-22T10:36:27;6.72;;;2.10;;
39242;SDS011;29823;47.404;8.566;2024-03-22T10:38:53;4.43;;;1.85;;
39242;SDS011;29823;47.404;8.566;2024-03-22T10:41:24;5.63;;;2.22;;
39242;SDS011;29823;47.404;8.566;2024-03-22T10:43:50;4.85;;;1.67;;
39242;SDS011;29823;47.404;8.566;2024-03-22T10:46:16;5.03;;;2.00;;
39242;SDS011;29823;47.404;8.566;2024-03-22T10:48:45;3.38;;;1.73;;
39242;SDS011;29823;47.404;8.566;2024-03-22T10:51:12;4.43;;;1.80;;
39242;SDS011;29823;47.404;8.566;2024-03-22T10:53:38;6.78;;;2.05;;
39242;SDS011;29823;47.404;8.566;2024-03-22T10:56:05;5.68;;;2.03;;
39242;SDS011;29823;47.404;8.566;2024-03-22T10:58:33;2.85;;;1.63;;
39242;SDS011;29823;47.404;8.566;2024-03-22T11:01:00;4.55;;;1.60;;
39242;SDS011;29823;47.404;8.566;2024-03-22T11:03:26;2.00;;;1.20;;
39242;SDS011;29823;47.404;8.566;2024-03-22T11:05:54;3.28;;;1.40;;
39242;SDS011;29823;47.404;8.566;2024-03-22T11:08:23;3.63;;;1.33;;
39242;SDS011;29823;47.404;8.566;2024-03-22T11:10:50;2.15;;;1.30;;
39242;SDS011;29823;47.404;8.566;2024-03-22T11:13:16;5.28;;;1.17;;
39242;SDS011;29823;47.404;8.566;2024-03-22T11:15:45;7.32;;;1.98;;
39242;SDS011;29823;47.404;8.566;2024-03-22T11:18:12;2.28;;;1.23;;
39242;SDS011;29823;47.404;8.566;2024-03-22T11:20:39;1.73;;;1.13;;
39242;SDS011;29823;47.404;8.566;2024-03-22T11:23:05;4.07;;;0.90;;
39242;SDS011;29823;47.404;8.566;2024-03-22T11:25:31;1.98;;;1.40;;
39242;SDS011;29823;47.404;8.566;2024-03-22T11:27:57;2.63;;;0.90;;
39242;SDS011;29823;47.404;8.566;2024-03-22T11:30:26;2.05;;;1.00;;
39242;SDS011;29823;47.404;8.566;2024-03-22T11:32:53;2.60;;;0.98;;
39242;SDS011;29823;47.404;8.566;2024-03-22T11:35:20;4.28;;;1.30;;
39242;SDS011;29823;47.404;8.566;2024-03-22T11:37:46;3.92;;;1.13;;
39242;SDS011;29823;47.404;8.566;2024-03-22T11:40:12;3.63;;;1.33;;
39242;SDS011;29823;47.404;8.566;2024-03-22T11:42:38;3.17;;;1.40;;
39242;SDS011;29823;47.404;8.566;2024-03-22T11:45:06;4.57;;;1.20;;
39242;SDS011;29823;47.404;8.566;2024-03-22T11:47:34;1.85;;;1.15;;
39242;SDS011;29823;47.404;8.566;2024-03-22T11:50:02;4.25;;;1.15;;
39242;SDS011;29823;47.404;8.566;2024-03-22T11:52:28;3.78;;;1.40;;
39242;SDS011;29823;47.404;8.566;2024-03-22T11:54:55;1.88;;;1.08;;
39242;SDS011;29823;47.404;8.566;2024-03-22T11:57:21;4.78;;;1.30;;
39242;SDS011;29823;47.404;8.566;2024-03-22T11:59:48;1.75;;;1.17;;
39242;SDS011;29823;47.404;8.566;2024-03-22T12:02:14;5.78;;;1.48;;
39242;SDS011;29823;47.404;8.566;2024-03-22T12:04:41;3.10;;;1.40;;
39242;SDS011;29823;47.404;8.566;2024-03-22T12:07:10;3.20;;;1.30;;
39242;SDS011;29823;47.404;8.566;2024-03-22T12:09:37;2.95;;;1.05;;
39242;SDS011;29823;47.404;8.566;2024-03-22T12:12:03;4.57;;;1.25;;
39242;SDS011;29823;47.404;8.566;2024-03-22T12:14:30;1.75;;;1.05;;
39242;SDS011;29823;47.404;8.566;2024-03-22T12:16:56;5.57;;;1.40;;
39242;SDS011;29823;47.404;8.566;2024-03-22T12:19:24;2.38;;;1.20;;
39242;SDS011;29823;47.404;8.566;2024-03-22T12:21:50;5.13;;;1.70;;
39242;SDS011;29823;47.404;8.566;2024-03-22T12:24:18;5.70;;;1.48;;
39242;SDS011;29823;47.404;8.566;2024-03-22T12:26:44;4.25;;;1.42;;
39242;SDS011;29823;47.404;8.566;2024-03-22T12:29:12;2.55;;;1.20;;
39242;SDS011;29823;47.404;8.566;2024-03-22T12:31:37;4.10;;;1.40;;
39242;SDS011;29823;47.404;8.566;2024-03-22T12:34:04;4.05;;;1.67;;
39242;SDS011;29823;47.404;8.566;2024-03-22T12:36:30;2.80;;;1.10;;
39242;SDS011;29823;47.404;8.566;2024-03-22T12:38:57;2.53;;;0.98;;
39242;SDS011;29823;47.404;8.566;2024-03-22T12:41:24;2.88;;;1.23;;
39242;SDS011;29823;47.404;8.566;2024-03-22T12:43:51;6.93;;;1.30;;
39242;SDS011;29823;47.404;8.566;2024-03-22T12:46:16;4.07;;;1.55;;
39242;SDS011;29823;47.404;8.566;2024-03-22T12:48:43;1.80;;;1.05;;
39242;SDS011;29823;47.404;8.566;2024-03-22T12:51:09;7.72;;;1.45;;
39242;SDS011;29823;47.404;8.566;2024-03-22T12:53:36;8.07;;;1.20;;
39242;SDS011;29823;47.404;8.566;2024-03-22T12:56:02;3.42;;;1.30;;
39242;SDS011;29823;47.404;8.566;2024-03-22T12:58:30;4.90;;;1.40;;
39242;SDS011;29823;47.404;8.566;2024-03-22T13:00:56;4.35;;;1.15;;
39242;SDS011;29823;47.404;8.566;2024-03-22T13:03:23;2.78;;;1.10;;
39242;SDS011;29823;47.404;8.566;2024-03-22T13:05:49;2.47;;;1.20;;
39242;SDS011;29823;47.404;8.566;2024-03-22T13:08:16;4.45;;;1.40;;
39242;SDS011;29823;47.404;8.566;2024-03-22T13:10:42;7.03;;;1.52;;
39242;SDS011;29823;47.404;8.566;2024-03-22T13:13:10;2.45;;;1.13;;
39242;SDS011;29823;47.404;8.566;2024-03-22T13:15:37;3.17;;;1.17;;
39242;SDS011;29823;47.404;8.566;2024-03-22T13:18:04;4.78;;;1.10;;
39242;SDS011;29823;47.404;8.566;2024-03-22T13:20:30;3.42;;;1.50;;
39242;SDS011;29823;47.404;8.566;2024-03-22T13:22:57;3.13;;;0.98;;
39242;SDS011;29823;47.404;8.566;2024-03-22T13:25:22;2.58;;;1.15;;
39242;SDS011;29823;47.404;8.566;2024-03-22T13:27:49;1.75;;;1.30;;
39242;SDS011;29823;47.404;8.566;2024-03-22T13:30:15;3.05;;;1.10;;
39242;SDS011;29823;47.404;8.566;2024-03-22T13:32:43;3.03;;;1.30;;
39242;SDS011;29823;47.404;8.566;2024-03-22T13:35:09;3.05;;;0.90;;
39242;SDS011;29823;47.404;8.566;2024-03-22T13:37:36;2.60;;;1.30;;
39242;SDS011;29823;47.404;8.566;2024-03-22T13:40:02;1.70;;;0.88;;
39242;SDS011;29823;47.404;8.566;2024-03-22T13:42:29;1.00;;;0.73;;
39242;SDS011;29823;47.404;8.566;2024-03-22T13:44:55;1.48;;;0.80;;
39242;SDS011;29823;47.404;8.566;2024-03-22T13:47:22;1.67;;;0.80;;
39242;SDS011;29823;47.404;8.566;2024-03-22T13:49:49;1.67;;;0.93;;
39242;SDS011;29823;47.404;8.566;2024-03-22T13:52:16;4.40;;;1.10;;
39242;SDS011;29823;47.404;8.566;2024-03-22T13:54:41;2.25;;;0.70;;
39242;SDS011;29823;47.404;8.566;2024-03-22T13:57:08;2.58;;;0.95;;
39242;SDS011;29823;47.404;8.566;2024-03-22T13:59:33;3.60;;;0.98;;
39242;SDS011;29823;47.404;8.566;2024-03-22T14:02:01;2.38;;;1.00;;
39242;SDS011;29823;47.404;8.566;2024-03-22T14:04:27;2.42;;;1.00;;
39242;SDS011;29823;47.404;8.566;2024-03-22T14:06:55;3.55;;;1.00;;
39242;SDS011;29823;47.404;8.566;2024-03-22T14:09:21;1.50;;;1.13;;
39242;SDS011;29823;47.404;8.566;2024-03-22T14:11:48;1.63;;;0.95;;
39242;SDS011;29823;47.404;8.566;2024-03-22T14:14:14;2.85;;;1.10;;
39242;SDS011;29823;47.404;8.566;2024-03-22T14:16:41;3.17;;;1.33;;
39242;SDS011;29823;47.404;8.566;2024-03-22T14:19:07;3.53;;;0.82;;
39242;SDS011;29823;47.404;8.566;2024-03-22T14:21:34;1.30;;;1.00;;
39242;SDS011;29823;47.404;8.566;2024-03-22T14:24:01;2.13;;;1.13;;
39242;SDS011;29823;47.404;8.566;2024-03-22T14:26:28;1.70;;;0.73;;
39242;SDS011;29823;47.404;8.566;2024-03-22T14:28:54;1.80;;;0.95;;
39242;SDS011;29823;47.404;8.566;2024-03-22T14:31:21;1.77;;;0.98;;
39242;SDS011;29823;47.404;8.566;2024-03-22T14:33:46;5.38;;;1.42;;
39242;SDS011;29823;47.404;8.566;2024-03-22T14:36:13;2.50;;;1.10;;
39242;SDS011;29823;47.404;8.566;2024-03-22T14:38:39;2.25;;;0.93;;
39242;SDS011;29823;47.404;8.566;2024-03-22T14:41:07;2.30;;;0.90;;